Time;durP1;ratioP1;P1;durP2;ratioP2;P2;SDS_P1;SDS_P2;PMS_P1;PMS_P2;Temp;Humidity;BMP_temperature;BMP_pressure;BME280_temperature;BME280_humidity;BME280_pressure;Samples;Min_cycle;Max_cycle;Signal;HPM_P1;HPM_P2
2021/06/06 00:02:04;;;;;;;6.90;3.83;;;;;;;16.31;100.00;102455.61;1782032;80;24318;-75
2021/06/06 00:04:34;;;;;;;6.43;3.43;;;;;;;16.26;100.00;102457.86;1820540;79;24173;-75
2021/06/06 00:07:04;;;;;;;3.73;3.43;;;;;;;15.90;100.00;102468.88;1811349;79;24168;-75
2021/06/06 00:09:33;;;;;;;4.57;3.47;;;;;;;15.90;100.00;102468.88;1820475;79;26322;-74
2021/06/06 00:12:04;;;;;;;5.10;3.80;;;;;;;15.76;100.00;102464.39;1811338;79;24180;-75
2021/06/06 00:14:37;;;;;;;5.80;3.77;;;;;;;15.68;100.00;102468.31;1820534;79;26286;-74
2021/06/06 00:17:10;;;;;;;4.60;3.70;;;;;;;15.55;100.00;102466.07;1811277;79;26221;-75
2021/06/06 00:19:40;;;;;;;6.97;3.80;;;;;;;15.48;100.00;102471.93;1820620;79;26317;-74
2021/06/06 00:22:11;;;;;;;5.07;3.97;;;;;;;15.47;100.00;102475.84;1811537;79;26239;-74
2021/06/06 00:24:42;;;;;;;4.63;3.63;;;;;;;15.44;100.00;102480.05;1820308;79;26307;-74
2021/06/06 00:27:13;;;;;;;5.23;4.10;;;;;;;15.37;100.00;102485.62;1805562;78;26409;-75
2021/06/06 00:29:42;;;;;;;8.30;4.70;;;;;;;15.40;100.00;102487.30;1801953;80;26354;-74
2021/06/06 00:32:13;;;;;;;5.37;4.10;;;;;;;15.38;100.00;102483.95;1804086;79;26363;-75
2021/06/06 00:34:42;;;;;;;4.27;3.43;;;;;;;15.44;100.00;102485.66;1802160;79;26329;-75
2021/06/06 00:37:13;;;;;;;6.63;3.70;;;;;;;15.35;100.00;102486.47;1805465;78;26851;-74
2021/06/06 00:39:43;;;;;;;6.20;4.17;;;;;;;15.35;100.00;102490.12;1801982;80;26306;-74
2021/06/06 00:42:15;;;;;;;5.60;4.67;;;;;;;15.50;100.00;102489.31;1804126;79;26282;-74
2021/06/06 00:44:45;;;;;;;8.43;4.10;;;;;;;15.56;100.00;102495.21;1802295;80;26288;-74
2021/06/06 00:47:16;;;;;;;4.47;4.07;;;;;;;15.70;100.00;102496.32;1805447;78;26270;-74
2021/06/06 00:49:46;;;;;;;9.60;4.70;;;;;;;15.64;100.00;102498.02;1802027;80;24163;-75
2021/06/06 00:52:19;;;;;;;5.70;4.00;;;;;;;15.67;100.00;102493.25;1803956;79;26807;-74
2021/06/06 00:54:51;;;;;;;5.70;4.10;;;;;;;15.67;100.00;102493.25;1802031;80;26323;-74
2021/06/06 00:57:23;;;;;;;4.27;3.73;;;;;;;15.54;100.00;102499.39;1804124;79;26253;-74
2021/06/06 00:59:57;;;;;;;7.63;4.60;;;;;;;15.48;100.00;102499.38;1802120;80;26228;-74
2021/06/06 01:02:27;;;;;;;5.67;4.20;;;;;;;15.50;100.00;102503.31;1802072;78;26245;-74
2021/06/06 01:04:57;;;;;;;5.23;4.10;;;;;;;15.46;100.00;102500.20;1802211;79;26367;-74
2021/06/06 01:07:27;;;;;;;8.37;4.13;;;;;;;15.57;100.00;102500.26;1805454;78;24231;-74
2021/06/06 01:09:57;;;;;;;6.33;4.10;;;;;;;15.46;100.00;102504.41;1802040;80;24159;-74
2021/06/06 01:12:30;;;;;;;5.07;4.37;;;;;;;15.48;100.00;102505.54;1804059;79;26739;-74
2021/06/06 01:15:02;;;;;;;6.77;4.20;;;;;;;15.34;100.00;102516.43;1802003;80;26232;-73
2021/06/06 01:17:35;;;;;;;6.30;4.30;;;;;;;15.44;100.00;102517.02;1805374;78;26279;-74
2021/06/06 01:20:11;;;;;;;5.70;4.47;;;;;;;15.46;100.00;102508.61;1805350;79;26308;-74
2021/06/06 01:22:48;;;;;;;7.27;4.70;;;;;;;15.32;100.00;102508.85;1802109;80;26302;-73
2021/06/06 01:28:17;;;;;;;6.27;4.70;;;;;;;15.37;100.00;102508.87;1971973;73;30932;-74
2021/06/06 01:33:46;;;;;;;8.60;5.30;;;;;;;15.26;100.00;102511.93;1971819;73;32891;-73
2021/06/06 01:39:18;;;;;;;7.67;4.80;;;;;;;15.16;100.00;102500.70;1971907;73;33401;-73
2021/06/06 01:41:51;;;;;;;6.50;5.43;;;;;;;15.02;100.00;102511.01;1934665;74;26299;-73
2021/06/06 01:47:20;;;;;;;7.43;5.60;;;;;;;14.99;100.00;102503.73;2012360;71;32408;-74
2021/06/06 01:52:47;;;;;;;10.40;5.97;;;;;;;14.97;100.00;102503.98;1971740;73;32878;-74
2021/06/06 01:58:13;;;;;;;8.70;5.70;;;;;;;14.90;100.00;102492.22;1971776;73;32962;-74
2021/06/06 02:03:40;;;;;;;6.20;5.43;;;;;;;14.92;100.00;102490.00;1972014;73;32872;-73
2021/06/06 02:09:09;;;;;;;6.70;5.30;;;;;;;14.82;100.00;102484.91;1971714;73;32978;-73
2021/06/06 02:14:37;;;;;;;5.53;5.03;;;;;;;14.34;100.00;102496.67;1971904;73;33485;-73
2021/06/06 02:20:10;;;;;;;4.90;3.83;;;;;;;14.29;100.00;102500.83;1971953;73;33376;-74
2021/06/06 02:25:36;;;;;;;4.87;3.77;;;;;;;13.95;100.00;102496.12;1971796;73;33008;-73
2021/06/06 02:31:11;;;;;;;4.00;3.60;;;;;;;13.77;100.00;102497.95;1971965;73;33376;-73
2021/06/06 02:36:39;;;;;;;6.60;3.83;;;;;;;13.79;100.00;102499.06;1971755;73;32944;-74
2021/06/06 02:42:09;;;;;;;7.37;4.37;;;;;;;13.89;100.00;102494.42;1971884;73;32882;-73
2021/06/06 02:47:38;;;;;;;5.33;3.77;;;;;;;13.93;100.00;102484.39;1971758;73;33406;-73
2021/06/06 02:53:08;;;;;;;6.87;4.80;;;;;;;13.81;100.00;102479.55;1971750;73;32974;-73
2021/06/06 02:55:41;;;;;;;6.23;4.90;;;;;;;13.86;100.00;102484.34;1934200;74;26277;-73
2021/06/06 02:58:15;;;;;;;6.33;5.00;;;;;;;13.86;100.00;102488.53;1934460;74;26192;-73
2021/06/06 03:03:42;;;;;;;6.33;5.27;;;;;;;13.93;100.00;102481.59;1971891;73;33375;-72
2021/06/06 03:09:11;;;;;;;5.67;5.10;;;;;;;13.84;100.00;102475.38;1971921;72;33445;-72
2021/06/06 03:14:41;;;;;;;5.37;4.87;;;;;;;13.88;100.00;102477.36;1971911;73;32870;-73
2021/06/06 03:20:11;;;;;;;7.10;5.40;;;;;;;13.93;100.00;102476.01;1971850;73;33502;-74
2021/06/06 03:25:45;;;;;;;6.90;5.83;;;;;;;14.13;100.00;102479.48;1971786;73;32862;-73
2021/06/06 03:31:14;;;;;;;8.00;6.30;;;;;;;14.36;100.00;102474.92;1971956;73;33341;-73
2021/06/06 03:36:48;;;;;;;12.17;9.53;;;;;;;14.43;100.00;102471.31;1971943;72;32969;-74
2021/06/06 03:42:14;;;;;;;13.80;11.17;;;;;;;14.55;100.00;102466.89;1971903;73;32890;-74
2021/06/06 03:47:38;;;;;;;16.17;13.23;;;;;;;14.43;100.00;102472.71;1971805;73;32924;-74
2021/06/06 03:53:06;;;;;;;18.80;16.97;;;;;;;14.57;100.00;102469.72;1971675;73;33028;-73
2021/06/06 03:58:31;;;;;;;20.33;18.13;;;;;;;14.54;100.00;102463.83;1971828;73;32899;-73
2021/06/06 04:03:54;;;;;;;18.70;16.33;;;;;;;14.50;100.00;102472.48;1972014;73;33422;-73
2021/06/06 04:09:19;;;;;;;16.80;13.27;;;;;;;14.49;100.00;102463.25;1971925;73;33083;-73
2021/06/06 04:14:43;;;;;;;12.77;10.87;;;;;;;14.53;100.00;102457.95;1971977;73;33400;-73
2021/06/06 04:20:10;;;;;;;12.93;10.73;;;;;;;14.68;100.00;102452.96;1971798;73;32994;-74
2021/06/06 04:25:35;;;;;;;10.70;9.33;;;;;;;14.82;100.00;102467.58;1971828;73;32957;-74
2021/06/06 04:31:02;;;;;;;11.63;8.60;;;;;;;14.80;100.00;102464.78;1972010;73;32884;-73
2021/06/06 04:36:26;;;;;;;11.57;9.43;;;;;;;14.81;100.00;102467.28;1971805;73;33006;-73
2021/06/06 04:41:51;;;;;;;10.13;8.80;;;;;;;14.90;100.00;102459.20;1971989;73;33383;-73
2021/06/06 04:47:16;;;;;;;13.20;9.27;;;;;;;14.94;100.00;102461.73;1943056;73;32994;-73
2021/06/06 04:52:43;;;;;;;11.70;8.90;;;;;;;14.87;100.00;102466.75;1972047;73;32948;-75
2021/06/06 04:58:12;;;;;;;14.40;9.10;;;;;;;14.91;100.00;102469.28;1971832;73;32896;-73
2021/06/06 05:03:37;;;;;;;10.87;8.10;;;;;;;14.86;100.00;102475.70;1971997;73;33430;-73
2021/06/06 05:09:01;;;;;;;9.10;8.00;;;;;;;15.11;100.00;102475.48;1971981;73;32933;-75
2021/06/06 05:14:26;;;;;;;13.17;7.63;;;;;;;15.11;100.00;102471.28;1971792;73;32871;-73
2021/06/06 05:19:50;;;;;;;10.47;7.33;;;;;;;15.01;100.00;102472.12;1971904;73;32870;-73
2021/06/06 05:25:18;;;;;;;10.07;7.63;;;;;;;14.96;100.00;102468.75;1972011;73;33351;-73
2021/06/06 05:30:43;;;;;;;12.17;7.97;;;;;;;15.05;100.00;102464.86;1971877;73;32883;-73
2021/06/06 05:36:08;;;;;;;10.10;7.33;;;;;;;15.18;100.00;102464.33;1971967;73;33024;-73
2021/06/06 05:41:33;;;;;;;11.80;7.87;;;;;;;15.11;100.00;102462.89;1971985;73;33534;-73
2021/06/06 05:46:57;;;;;;;10.37;6.97;;;;;;;15.27;100.00;102480.02;1971730;71;33042;-73
2021/06/06 05:52:21;;;;;;;8.10;6.87;;;;;;;15.34;100.00;102478.63;1971986;73;33352;-73
2021/06/06 05:57:46;;;;;;;9.47;7.07;;;;;;;15.45;100.00;102480.86;1971805;73;32857;-73
2021/06/06 06:03:15;;;;;;;10.50;7.27;;;;;;;15.48;100.00;102483.98;1972034;73;33374;-73
2021/06/06 06:08:42;;;;;;;10.77;6.67;;;;;;;15.63;100.00;102482.31;1971784;73;32982;-73
2021/06/06 06:14:07;;;;;;;8.70;6.30;;;;;;;15.70;100.00;102479.51;1971830;73;33050;-73
2021/06/06 06:19:32;;;;;;;9.80;6.57;;;;;;;15.79;100.00;102478.39;1971885;73;32861;-73
2021/06/06 06:25:03;;;;;;;9.20;6.70;;;;;;;15.87;100.00;102484.86;1971867;73;32874;-74
2021/06/06 06:30:31;;;;;;;12.83;7.73;;;;;;;15.88;100.00;102479.51;1971788;73;32927;-74
2021/06/06 06:35:55;;;;;;;10.37;7.60;;;;;;;16.10;100.00;102474.44;1972046;73;33380;-73
2021/06/06 06:41:21;;;;;;;8.50;6.80;;;;;;;16.32;100.00;102474.96;1971982;73;33370;-73
2021/06/06 06:46:45;;;;;;;7.60;5.53;;;;;;;16.33;100.00;102483.66;1971952;73;31533;-73
2021/06/06 06:52:10;;;;;;;7.40;5.93;;;;;;;16.54;100.00;102487.24;1971784;73;32876;-74
2021/06/06 06:57:34;;;;;;;6.97;6.27;;;;;;;16.64;100.00;102487.81;1971897;73;32946;-73
2021/06/06 07:03:02;;;;;;;7.27;5.77;;;;;;;16.69;100.00;102487.77;1972003;73;31005;-74
2021/06/06 07:08:28;;;;;;;8.47;5.33;;;;;;;16.86;100.00;102485.45;1971799;73;30940;-74
2021/06/06 07:13:53;;;;;;;7.47;6.00;;;;;;;17.09;100.00;102483.94;1971912;73;33046;-74
2021/06/06 07:19:17;;;;;;;7.07;5.10;;;;;;;17.23;100.00;102482.17;1971881;73;30935;-73
2021/06/06 07:24:41;;;;;;;6.47;5.80;;;;;;;17.29;100.00;102487.45;1971931;73;31472;-73
2021/06/06 07:30:09;;;;;;;7.00;5.47;;;;;;;17.47;100.00;102484.53;1971855;73;32926;-73
2021/06/06 07:35:34;;;;;;;5.40;4.90;;;;;;;17.67;100.00;102487.80;1971872;73;31463;-73
2021/06/06 07:41:01;;;;;;;7.53;5.13;;;;;;;17.84;100.00;102494.41;1972094;73;30965;-73
2021/06/06 07:46:28;;;;;;;5.93;5.07;;;;;;;17.88;100.00;102483.69;1971660;73;30974;-74
2021/06/06 07:51:55;;;;;;;5.73;4.67;;;;;;;17.99;100.00;102488.06;1971558;73;33046;-73
2021/06/06 07:57:19;;;;;;;6.23;4.50;;;;;;;18.10;100.00;102488.23;1971765;73;31469;-73
2021/06/06 08:02:43;;;;;;;7.10;4.30;;;;;;;18.05;100.00;102477.62;1971641;73;33019;-73
2021/06/06 08:08:11;;;;;;;5.30;4.80;;;;;;;18.06;100.00;102482.09;1971631;72;31009;-73
2021/06/06 08:13:38;;;;;;;7.00;4.90;;;;;;;18.01;100.00;102478.75;1971646;73;30939;-74
2021/06/06 08:19:04;;;;;;;5.60;4.77;;;;;;;18.05;100.00;102487.47;1971687;73;30942;-73
2021/06/06 08:24:30;;;;;;;6.60;5.10;;;;;;;17.93;100.00;102487.83;1971944;73;30932;-73
2021/06/06 08:29:55;;;;;;;6.90;4.93;;;;;;;18.01;100.00;102484.97;1971649;73;30995;-74
2021/06/06 08:35:25;;;;;;;5.90;4.70;;;;;;;18.16;100.00;102489.88;1971625;73;30947;-75
2021/06/06 08:41:02;;;;;;;6.60;5.27;;;;;;;18.09;100.00;102492.77;1971679;73;31027;-74
2021/06/06 08:46:37;;;;;;;6.33;5.40;;;;;;;18.18;100.00;102491.80;1971875;72;31470;-76
2021/06/06 08:52:08;;;;;;;8.17;5.30;;;;;;;18.33;100.00;102490.81;1971730;73;31008;-74
2021/06/06 08:57:38;;;;;;;6.90;5.30;;;;;;;18.46;100.00;102486.45;1971880;73;33407;-75
2021/06/06 09:00:13;;;;;;;5.80;5.20;;;;;;;18.51;100.00;102492.03;1934817;74;24133;-75
2021/06/06 09:02:48;;;;;;;6.10;5.03;;;;;;;18.48;100.00;102494.05;1934533;74;26638;-75
2021/06/06 09:08:23;;;;;;;7.00;5.33;;;;;;;18.61;100.00;102486.33;1971620;73;30979;-75
2021/06/06 09:13:49;;;;;;;4.50;4.00;;;;;;;18.42;100.00;102486.78;1971629;73;30926;-74
2021/06/06 09:19:15;;;;;;;4.83;4.43;;;;;;;18.83;100.00;102482.93;1971706;73;31012;-74
2021/06/06 09:24:47;;;;;;;5.40;3.67;;;;;;;18.59;100.00;102473.95;1971823;73;31031;-74
2021/06/06 09:30:18;;;;;;;7.70;4.30;;;;;;;18.85;100.00;102475.88;1971823;73;31036;-74
2021/06/06 09:35:52;;;;;;;3.93;3.53;;;;;;;18.82;100.00;102488.31;1971824;73;31016;-73
2021/06/06 09:41:29;;;;;;;3.73;3.43;;;;;;;19.11;100.00;102483.41;1972028;73;31446;-74
2021/06/06 09:47:01;;;;;;;5.07;3.67;;;;;;;19.28;100.00;102487.95;1961029;71;31111;-75
2021/06/06 09:52:47;;;;;;;6.00;3.40;;;;;;;19.22;100.00;102484.93;2015977;71;30914;-77
2021/06/06 09:58:28;;;;;;;4.33;2.70;;;;;;;19.20;100.00;102485.82;1971851;73;31029;-76
2021/06/06 10:03:57;;;;;;;3.23;2.90;;;;;;;19.24;100.00;102493.93;1971867;73;30933;-75
2021/06/06 10:09:33;;;;;;;3.10;2.43;;;;;;;19.10;100.00;102493.00;1972054;73;33373;-76
2021/06/06 10:15:03;;;;;;;2.57;1.87;;;;;;;19.40;100.00;102494.53;1971741;73;30988;-75
2021/06/06 10:20:57;;;;;;;1.60;1.50;;;;;;;19.75;100.00;102494.01;2015920;71;33306;-76
2021/06/06 10:26:27;;;;;;;3.10;2.30;;;;;;;19.85;100.00;102477.49;1971757;73;30937;-75
2021/06/06 10:31:55;;;;;;;2.53;2.27;;;;;;;20.20;100.00;102474.58;1971914;73;31029;-75
2021/06/06 10:37:25;;;;;;;3.03;2.17;;;;;;;20.52;100.00;102475.13;1971836;73;30956;-75
2021/06/06 10:42:55;;;;;;;2.63;1.90;;;;;;;20.62;100.00;102472.95;1971813;73;30981;-75
2021/06/06 10:48:25;;;;;;;2.00;1.80;;;;;;;20.85;100.00;102470.46;1971683;73;31079;-76
2021/06/06 10:51:08;;;;;;;3.43;2.23;;;;;;;20.66;100.00;102475.97;1934564;74;24137;-76
2021/06/06 10:56:44;;;;;;;2.10;1.90;;;;;;;20.73;100.00;102467.34;1971788;73;30922;-76
2021/06/06 11:02:11;;;;;;;3.40;2.30;;;;;;;21.07;100.00;102464.05;1971777;73;31025;-75
2021/06/06 11:07:46;;;;;;;2.43;1.90;;;;;;;21.05;100.00;102462.70;1971740;73;31011;-75
2021/06/06 11:13:36;;;;;;;1.77;1.67;;;;;;;21.02;100.00;102459.08;1971817;73;30916;-75
2021/06/06 11:19:05;;;;;;;2.10;1.80;;;;;;;21.18;100.00;102453.39;1971850;73;31443;-76
2021/06/06 11:24:46;;;;;;;3.00;2.00;;;;;;;21.23;100.00;102458.33;1971821;73;33333;-76
2021/06/06 11:30:39;;;;;;;3.17;2.00;;;;;;;21.21;100.00;102449.91;1972030;73;30923;-76
2021/06/06 11:36:06;;;;;;;2.50;1.97;;;;;;;21.34;100.00;102448.47;1971812;73;31133;-75
2021/06/06 11:41:41;;;;;;;1.93;1.70;;;;;;;21.35;100.00;102447.28;1971719;73;30926;-75
2021/06/06 11:47:25;;;;;;;2.00;1.23;;;;;;;21.56;100.00;102443.41;1971780;73;31126;-75
2021/06/06 11:52:55;;;;;;;3.10;1.20;;;;;;;22.15;100.00;102442.73;1971912;73;31445;-76
2021/06/06 11:55:29;;;;;;;1.70;1.20;;;;;;;21.83;100.00;102448.64;1934996;74;26662;-75
2021/06/06 11:58:07;;;;;;;2.37;1.03;;;;;;;21.51;100.00;102446.36;1934641;74;24184;-75
2021/06/06 12:03:36;;;;;;;1.65;1.15;;;;;;;21.80;100.00;102443.91;1971759;73;30895;-75
2021/06/06 12:09:14;;;;;;;1.60;1.50;;;;;;;21.75;100.00;102447.44;1971935;73;30891;-75
2021/06/06 12:14:39;;;;;;;1.15;1.00;;;;;;;21.88;100.00;102440.03;1971856;73;31352;-74
2021/06/06 12:20:16;;;;;;;1.35;0.90;;;;;;;21.94;100.00;102435.95;1971980;72;31430;-74
2021/06/06 12:25:43;;;;;;;0.50;0.43;;;;;;;22.01;100.00;102438.56;1971690;73;30936;-74
2021/06/06 12:31:18;;;;;;;0.80;0.80;;;;;;;22.08;100.00;102440.34;1971674;73;30887;-73
2021/06/06 12:36:46;;;;;;;1.62;1.42;;;;;;;22.24;100.00;102435.95;1971684;73;30989;-74
2021/06/06 12:42:15;;;;;;;1.57;1.47;;;;;;;21.93;100.00;102437.10;1971827;73;31405;-74
2021/06/06 12:47:44;;;;;;;2.55;1.75;;;;;;;21.86;100.00;102429.05;1971711;73;30997;-74
2021/06/06 12:53:29;;;;;;;2.25;1.98;;;;;;;21.95;100.00;102425.70;1971903;73;31514;-74
2021/06/06 12:59:12;;;;;;;2.30;2.10;;;;;;;21.93;100.00;102432.28;1971751;73;30938;-73
2021/06/06 13:04:37;;;;;;;1.90;1.70;;;;;;;21.88;100.00;102429.55;1971887;73;31433;-74
2021/06/06 13:10:18;;;;;;;1.98;1.77;;;;;;;21.89;100.00;102437.46;1971712;73;30982;-74
2021/06/06 13:15:46;;;;;;;1.72;1.45;;;;;;;22.08;100.00;102436.67;1971984;73;30944;-72
2021/06/06 13:21:27;;;;;;;1.90;1.72;;;;;;;22.35;100.00;102425.73;1971876;73;31370;-72
2021/06/06 13:27:05;;;;;;;3.40;1.87;;;;;;;22.29;100.00;102426.48;1971867;73;30913;-73
2021/06/06 13:32:34;;;;;;;1.67;1.57;;;;;;;22.46;100.00;102422.89;1971853;73;31573;-73
2021/06/06 13:38:01;;;;;;;1.80;1.70;;;;;;;22.40;100.00;102425.02;1971785;73;31169;-75
2021/06/06 13:43:28;;;;;;;2.27;1.70;;;;;;;22.17;100.00;102420.58;1971749;73;30958;-75
2021/06/06 13:48:51;;;;;;;1.67;1.57;;;;;;;22.27;100.00;102413.22;1971809;73;31011;-73
2021/06/06 13:54:16;;;;;;;2.15;1.95;;;;;;;22.28;100.00;102412.64;1971885;73;31426;-75
2021/06/06 13:59:42;;;;;;;2.15;1.98;;;;;;;22.30;100.00;102415.39;1971685;73;31012;-74
2021/06/06 14:05:09;;;;;;;1.75;1.62;;;;;;;22.35;100.00;102411.58;1971804;73;30921;-74
2021/06/06 14:10:38;;;;;;;2.45;1.90;;;;;;;22.55;100.00;102410.39;1971781;73;31023;-75
2021/06/06 14:16:06;;;;;;;2.03;1.87;;;;;;;22.39;100.00;102408.34;1971796;73;31417;-74
2021/06/06 14:21:33;;;;;;;2.40;2.20;;;;;;;22.41;100.00;102398.38;1955646;73;38858;-74
2021/06/06 14:27:00;;;;;;;2.22;2.10;;;;;;;22.56;100.00;102389.98;1971672;73;30930;-75
2021/06/06 14:32:25;;;;;;;2.60;2.40;;;;;;;22.57;100.00;102398.17;1971704;73;30916;-74
2021/06/06 14:37:49;;;;;;;2.92;2.40;;;;;;;22.32;100.00;102396.67;1971753;73;30929;-75
2021/06/06 14:43:19;;;;;;;2.67;2.33;;;;;;;22.40;100.00;102389.63;1971696;73;30907;-75
2021/06/06 14:48:44;;;;;;;2.50;2.30;;;;;;;22.41;100.00;102376.30;1971999;73;30993;-75
2021/06/06 14:54:13;;;;;;;2.62;2.42;;;;;;;22.57;100.00;102381.75;1971661;73;31097;-75
2021/06/06 14:59:38;;;;;;;2.72;2.52;;;;;;;22.54;100.00;102377.59;1971710;73;30949;-77
2021/06/06 15:05:04;;;;;;;3.50;3.20;;;;;;;22.49;100.00;102384.82;1971676;73;30930;-73
2021/06/06 15:10:32;;;;;;;2.83;2.62;;;;;;;22.34;100.00;102379.59;1971836;73;30940;-77
2021/06/06 15:15:57;;;;;;;3.47;2.97;;;;;;;22.39;100.00;102365.87;1971635;72;31013;-77
2021/06/06 15:21:25;;;;;;;3.47;3.22;;;;;;;22.57;100.00;102357.09;1971993;73;30954;-83
2021/06/06 15:26:50;;;;;;;2.87;2.67;;;;;;;22.79;100.00;102356.75;1971823;73;31578;-76
2021/06/06 15:32:15;;;;;;;3.02;2.70;;;;;;;22.98;100.00;102352.99;1971619;73;30928;-75
2021/06/06 15:37:43;;;;;;;3.00;2.80;;;;;;;22.98;100.00;102352.41;1971917;73;31029;-73
2021/06/06 15:43:13;;;;;;;3.45;3.15;;;;;;;23.07;100.00;102349.58;1971911;73;31515;-77
2021/06/06 15:48:36;;;;;;;2.98;2.77;;;;;;;23.06;100.00;102347.94;1972069;73;30926;-75
2021/06/06 15:54:02;;;;;;;3.15;2.85;;;;;;;23.24;100.00;102336.81;1953067;72;31400;-78
2021/06/06 15:59:25;;;;;;;3.58;3.27;;;;;;;23.38;100.00;102336.63;1971961;73;31000;-77
2021/06/06 16:04:51;;;;;;;3.00;2.80;;;;;;;23.31;100.00;102332.91;1977560;72;31348;-78
2021/06/06 16:10:18;;;;;;;2.65;2.45;;;;;;;23.16;100.00;102326.31;1971720;73;30935;-74
2021/06/06 16:15:43;;;;;;;2.75;2.55;;;;;;;23.06;100.00;102318.17;1971868;72;31617;-73
2021/06/06 16:21:11;;;;;;;3.22;3.02;;;;;;;22.79;100.00;102316.50;1971653;73;30920;-74
2021/06/06 16:26:37;;;;;;;3.22;2.92;;;;;;;22.83;100.00;102303.33;1971794;73;30929;-74
2021/06/06 16:32:02;;;;;;;2.92;2.72;;;;;;;22.75;100.00;102307.58;1971967;73;31036;-73
2021/06/06 16:37:26;;;;;;;3.92;3.33;;;;;;;22.90;100.00;102305.65;1971886;73;31036;-75
2021/06/06 16:43:11;;;;;;;2.85;2.65;;;;;;;22.99;100.00;102302.23;2016062;71;30951;-75
2021/06/06 16:48:56;;;;;;;5.83;3.95;;;;;;;23.07;100.00;102289.47;2016116;71;31335;-79
2021/06/06 16:54:24;;;;;;;2.85;2.55;;;;;;;23.03;100.00;102290.48;1963655;71;31469;-79
2021/06/06 17:00:12;;;;;;;3.00;2.80;;;;;;;22.53;100.00;102292.37;2016747;71;31428;-81
2021/06/06 17:05:38;;;;;;;3.42;3.15;;;;;;;22.60;100.00;102284.20;1942832;72;65168;-75
2021/06/06 17:11:05;;;;;;;3.65;3.35;;;;;;;22.73;100.00;102284.39;1972049;73;30921;-78
2021/06/06 17:16:37;;;;;;;3.83;3.42;;;;;;;22.86;100.00;102278.57;1972102;73;31418;-78
2021/06/06 17:22:01;;;;;;;4.15;3.20;;;;;;;22.77;100.00;102282.56;1972202;73;30918;-76
2021/06/06 17:27:45;;;;;;;3.72;3.33;;;;;;;23.01;100.00;102284.33;1947658;74;31095;-75
2021/06/06 17:33:19;;;;;;;3.47;3.27;;;;;;;22.88;100.00;102279.66;1971972;73;31010;-73
2021/06/06 17:38:44;;;;;;;4.10;3.70;;;;;;;22.82;100.00;102274.73;1972093;72;31543;-73
2021/06/06 17:44:11;;;;;;;3.77;3.47;;;;;;;22.83;100.00;102274.16;1972021;73;31420;-74
2021/06/06 17:49:34;;;;;;;4.12;3.83;;;;;;;22.88;100.00;102269.16;1971921;73;30943;-73
2021/06/06 17:55:02;;;;;;;4.00;3.70;;;;;;;22.75;100.00;102277.83;1972051;73;30981;-78
2021/06/06 18:00:30;;;;;;;3.37;3.08;;;;;;;22.62;100.00;102275.38;1971895;73;31029;-73
2021/06/06 18:05:56;;;;;;;3.42;3.12;;;;;;;22.46;100.00;102277.04;1972008;73;30987;-75
2021/06/06 18:11:21;;;;;;;3.25;2.90;;;;;;;22.49;100.00;102282.87;1971994;73;31004;-73
2021/06/06 18:16:46;;;;;;;2.60;2.40;;;;;;;22.35;100.00;102276.51;1971956;73;30984;-75
2021/06/06 18:22:11;;;;;;;2.60;2.40;;;;;;;22.27;100.00;102278.74;1971859;72;30920;-75
2021/06/06 18:27:35;;;;;;;2.70;2.50;;;;;;;22.21;100.00;102275.80;1972178;73;31495;-72
2021/06/06 18:33:01;;;;;;;2.83;2.62;;;;;;;22.07;100.00;102276.53;1972167;72;31514;-76
2021/06/06 18:38:25;;;;;;;3.10;2.80;;;;;;;21.93;100.00;102282.31;1972145;73;31099;-72
2021/06/06 18:43:50;;;;;;;3.20;2.90;;;;;;;21.90;100.00;102285.77;1972046;73;31009;-76
2021/06/06 18:49:34;;;;;;;3.65;3.35;;;;;;;21.78;100.00;102286.37;2016164;71;30881;-76
2021/06/06 18:55:01;;;;;;;3.70;2.95;;;;;;;21.73;100.00;102292.20;1972195;73;30921;-75
2021/06/06 19:00:28;;;;;;;4.10;3.70;;;;;;;21.77;100.00;102291.80;1972067;73;31502;-74
2021/06/06 19:05:53;;;;;;;4.40;4.00;;;;;;;21.72;100.00;102295.34;1972016;73;31488;-72
2021/06/06 19:11:19;;;;;;;3.60;3.27;;;;;;;21.65;100.00;102301.45;1972052;73;30929;-72
2021/06/06 19:16:45;;;;;;;4.17;3.20;;;;;;;21.61;100.00;102299.59;1971847;73;30934;-74
2021/06/06 19:22:10;;;;;;;3.95;3.62;;;;;;;21.64;100.00;102298.39;1971879;73;30934;-73
2021/06/06 19:27:35;;;;;;;3.60;3.27;;;;;;;21.51;100.00;102298.48;1971834;73;30950;-76
2021/06/06 19:33:01;;;;;;;3.93;3.63;;;;;;;21.38;100.00;102310.70;1971927;73;30941;-73
2021/06/06 19:38:28;;;;;;;4.83;3.70;;;;;;;21.25;100.00;102309.05;1971989;73;31480;-72
2021/06/06 19:43:55;;;;;;;5.20;4.37;;;;;;;21.13;100.00;102311.63;1972135;72;30942;-74
2021/06/06 19:49:41;;;;;;;4.62;4.22;;;;;;;20.93;100.00;102319.72;2008119;71;33206;-73
2021/06/06 19:55:09;;;;;;;4.50;4.10;;;;;;;20.81;100.00;102325.94;1972057;73;31015;-76
2021/06/06 20:00:39;;;;;;;4.80;3.97;;;;;;;20.71;100.00;102328.41;1972118;73;30981;-75
2021/06/06 20:06:25;;;;;;;4.73;4.17;;;;;;;20.79;100.00;102328.27;2016058;71;30863;-74
2021/06/06 20:12:10;;;;;;;3.80;3.50;;;;;;;20.81;100.00;102335.25;2016218;71;30838;-72
2021/06/06 20:17:36;;;;;;;5.10;4.43;;;;;;;20.82;100.00;102341.16;1971786;73;31005;-77
2021/06/06 20:23:06;;;;;;;4.43;4.03;;;;;;;20.73;100.00;102343.06;1971972;73;30940;-72
2021/06/06 20:28:35;;;;;;;4.30;3.90;;;;;;;20.56;100.00;102349.95;1972175;73;31002;-78
2021/06/06 20:34:13;;;;;;;4.27;3.87;;;;;;;20.45;100.00;102358.41;1972089;73;31483;-76
2021/06/06 20:39:55;;;;;;;4.33;3.77;;;;;;;20.28;100.00;102363.22;2014352;71;31007;-75
2021/06/06 20:45:25;;;;;;;4.27;3.87;;;;;;;20.19;100.00;102364.28;1971930;73;31678;-76
2021/06/06 20:51:09;;;;;;;4.27;3.97;;;;;;;20.06;100.00;102369.34;2016324;71;30856;-74
2021/06/06 20:56:34;;;;;;;4.97;3.60;;;;;;;19.90;100.00;102384.30;1972037;73;31524;-75
2021/06/06 21:01:59;;;;;;;4.33;3.93;;;;;;;19.91;100.00;102381.75;1971993;73;31566;-73
2021/06/06 21:07:23;;;;;;;4.70;4.30;;;;;;;19.76;100.00;102384.88;1972111;73;31487;-73
2021/06/06 21:12:54;;;;;;;4.73;4.33;;;;;;;19.69;100.00;102392.87;1972139;73;31415;-72
2021/06/06 21:18:23;;;;;;;6.50;5.43;;;;;;;19.54;100.00;102399.06;1972084;73;30942;-77
2021/06/06 21:24:09;;;;;;;6.07;5.57;;;;;;;19.50;100.00;102405.06;2014464;71;30901;-77
2021/06/06 21:29:36;;;;;;;6.33;5.73;;;;;;;19.40;100.00;102406.59;1971850;73;30992;-79
2021/06/06 21:35:01;;;;;;;5.63;5.13;;;;;;;19.29;100.00;102407.92;1971791;73;31061;-72
2021/06/06 21:40:47;;;;;;;5.20;4.70;;;;;;;19.19;100.00;102411.45;2016173;71;30958;-72
2021/06/06 21:46:15;;;;;;;4.77;4.27;;;;;;;19.04;100.00;102410.53;1965168;71;31518;-72
2021/06/06 21:51:39;;;;;;;4.70;4.30;;;;;;;19.06;100.00;102411.08;1971967;73;30996;-78
2021/06/06 21:57:06;;;;;;;5.13;4.63;;;;;;;18.92;100.00;102415.78;1972139;73;31010;-78
2021/06/06 22:02:30;;;;;;;5.20;4.70;;;;;;;18.89;100.00;102413.59;1972031;73;31460;-72
2021/06/06 22:07:58;;;;;;;6.17;5.07;;;;;;;18.86;100.00;102417.02;1971865;73;30928;-72
2021/06/06 22:13:24;;;;;;;5.63;5.13;;;;;;;18.69;100.00;102421.48;1971880;73;30935;-78
2021/06/06 22:18:50;;;;;;;6.00;5.23;;;;;;;18.61;100.00;102422.99;1972044;73;31413;-78
2021/06/06 22:21:55;;;;;;;5.23;4.73;;;;;;;18.66;100.00;102427.13;1934635;74;24136;-72
2021/06/06 22:25:00;;;;;;;5.20;4.70;;;;;;;18.70;100.00;102429.61;1934760;74;24218;-78
2021/06/06 22:28:08;;;;;;;5.50;5.00;;;;;;;18.69;100.00;102422.32;1934798;74;24218;-78
2021/06/06 22:31:12;;;;;;;5.53;4.93;;;;;;;18.50;100.00;102421.40;1934596;74;24218;-78
2021/06/06 22:34:17;;;;;;;5.03;4.63;;;;;;;18.58;100.00;102432.02;1934707;74;24220;-78
2021/06/06 22:37:22;;;;;;;6.00;5.50;;;;;;;18.55;100.00;102419.97;1934586;74;24147;-77
2021/06/06 22:40:29;;;;;;;6.37;5.50;;;;;;;18.51;100.00;102426.73;1934740;74;24137;-77
2021/06/06 22:43:33;;;;;;;5.07;4.67;;;;;;;18.46;100.00;102426.80;1934824;74;24711;-78
2021/06/06 22:46:38;;;;;;;6.43;5.70;;;;;;;18.36;100.00;102424.09;1925753;74;26303;-77
2021/06/06 22:49:43;;;;;;;6.50;5.80;;;;;;;18.31;100.00;102421.37;1916652;75;24135;-78